createdAt,value
2023-01-23T00:01:38.974Z,21.63
2023-01-23T00:06:24.230Z,153.30
2023-01-23T00:11:15.886Z,110.40
2023-01-23T00:16:03.219Z,69.40
2023-01-23T00:20:46.956Z,37.67
2023-01-23T00:25:35.388Z,329.27
2023-01-23T00:30:25.085Z,207.27
2023-01-23T00:35:12.792Z,78.93
2023-01-23T00:40:02.518Z,46.50
2023-01-23T00:44:47.677Z,149.83
2023-01-23T00:49:38.661Z,96.10
2023-01-23T00:54:26.048Z,172.73
2023-01-23T00:59:11.529Z,263.73
2023-01-23T01:04:03.816Z,82.33
2023-01-23T01:08:49.315Z,25.97
2023-01-23T01:13:37.061Z,20.90
2023-01-23T01:18:27.405Z,140.43
2023-01-23T01:23:20.640Z,71.07
2023-01-23T01:28:10.685Z,113.73
2023-01-23T01:32:56.120Z,107.53
2023-01-23T01:37:43.976Z,125.70
2023-01-23T01:42:33.071Z,42.93
2023-01-23T01:47:22.961Z,45.13
2023-01-23T01:52:11.046Z,26.47
2023-01-23T01:57:00.271Z,77.40
2023-01-23T02:01:47.111Z,20.97
2023-01-23T02:06:36.014Z,87.27
2023-01-23T02:11:20.146Z,105.40
2023-01-23T02:16:22.291Z,118.97
2023-01-23T02:21:15.379Z,108.00
2023-01-23T02:26:06.252Z,22.30
2023-01-23T02:30:51.305Z,73.20
2023-01-23T02:36:12.075Z,95.60
2023-01-23T02:46:30.055Z,67.33
2023-01-23T02:51:49.218Z,71.33
2023-01-23T02:56:53.336Z,18.87
2023-01-23T03:07:03.326Z,161.93
2023-01-23T03:17:59.874Z,49.47
2023-01-23T03:22:54.833Z,241.83
2023-01-23T03:27:58.505Z,209.67
2023-01-23T03:33:13.878Z,89.50
2023-01-23T03:38:35.084Z,135.03
2023-01-23T03:48:42.026Z,43.67
2023-01-23T03:53:30.497Z,43.63
2023-01-23T03:58:18.337Z,116.43
2023-01-23T04:03:10.833Z,25.23
2023-01-23T04:08:14.282Z,26.10
2023-01-23T04:12:59.587Z,66.77
2023-01-23T04:18:00.179Z,22.13
2023-01-23T04:22:48.280Z,24.90
2023-01-23T04:27:39.698Z,43.50
2023-01-23T04:32:28.487Z,34.93
2023-01-23T04:37:15.469Z,77.53
2023-01-23T04:42:15.594Z,24.00
2023-01-23T04:47:36.962Z,71.43
2023-01-23T04:52:25.611Z,27.07
2023-01-23T04:57:18.330Z,54.70
2023-01-23T05:02:50.554Z,26.63
2023-01-23T05:07:39.896Z,45.97
2023-01-23T05:12:42.961Z,32.63
2023-01-23T05:17:31.114Z,30.73
2023-01-23T05:22:20.863Z,27.23
2023-01-23T05:27:24.781Z,32.20
2023-01-23T05:32:41.818Z,27.67
2023-01-23T05:38:01.982Z,20.00
2023-01-23T05:42:48.215Z,19.50
2023-01-23T05:47:52.599Z,24.00
2023-01-23T05:52:40.116Z,21.37
2023-01-23T05:57:29.716Z,38.23
2023-01-23T06:02:33.767Z,23.47
2023-01-23T06:07:54.696Z,35.77
2023-01-23T06:12:53.131Z,31.57
2023-01-23T06:17:46.017Z,43.33
2023-01-23T06:27:35.578Z,188.33
2023-01-23T06:32:28.999Z,260.10
2023-01-23T06:37:24.741Z,51.40
2023-01-23T06:42:17.854Z,40.13
2023-01-23T06:47:08.306Z,80.83
2023-01-23T06:52:10.832Z,262.07
2023-01-23T06:57:13.646Z,436.47
2023-01-23T07:02:13.801Z,317.60
2023-01-23T07:08:11.172Z,148.97
2023-01-23T07:13:09.157Z,211.20
2023-01-23T07:18:13.547Z,110.40
2023-01-23T07:23:10.125Z,155.97
2023-01-23T07:28:08.240Z,102.23
2023-01-23T07:32:58.508Z,31.33
2023-01-23T07:37:50.169Z,151.87
2023-01-23T07:42:50.003Z,40.67
2023-01-23T07:47:37.561Z,74.23
2023-01-23T07:52:24.936Z,26.93
2023-01-23T07:57:12.680Z,131.03
2023-01-23T08:01:59.748Z,71.10
2023-01-23T08:07:21.360Z,39.33
2023-01-23T08:12:09.330Z,28.03
2023-01-23T08:16:56.234Z,33.30
2023-01-23T08:21:46.208Z,61.63
2023-01-23T08:26:34.670Z,43.73
2023-01-23T08:31:21.488Z,108.47
2023-01-23T08:36:11.314Z,49.87
2023-01-23T08:40:59.415Z,33.73
2023-01-23T08:45:50.688Z,115.77
2023-01-23T08:50:54.293Z,72.93
2023-01-23T08:55:39.102Z,118.80
2023-01-23T09:00:24.014Z,142.77
2023-01-23T09:05:18.315Z,150.87
2023-01-23T09:10:02.148Z,68.63
2023-01-23T09:14:47.303Z,97.13
2023-01-23T09:19:38.116Z,37.10
2023-01-23T09:24:25.926Z,52.23
2023-01-23T09:29:12.405Z,29.03
2023-01-23T09:34:05.058Z,38.10
2023-01-23T09:38:49.667Z,51.80
2023-01-23T09:43:52.172Z,30.13
2023-01-23T09:48:46.114Z,60.23
2023-01-23T09:53:47.122Z,39.07
2023-01-23T09:58:37.369Z,43.67
2023-01-23T10:03:23.735Z,27.60
2023-01-23T10:08:23.724Z,33.57
2023-01-23T10:13:26.703Z,29.80
2023-01-23T10:18:34.931Z,30.50
2023-01-23T10:23:39.229Z,38.10
2023-01-23T10:28:43.129Z,29.83
2023-01-23T10:33:49.989Z,51.67
2023-01-23T10:38:48.144Z,43.70
2023-01-23T10:43:37.275Z,115.30
2023-01-23T10:48:54.825Z,36.37
2023-01-23T10:54:04.504Z,41.97
2023-01-23T10:58:50.131Z,73.63
2023-01-23T11:03:37.188Z,32.77
2023-01-23T11:08:28.316Z,28.53
2023-01-23T11:13:27.795Z,26.83
2023-01-23T11:18:33.320Z,30.60
2023-01-23T11:23:20.913Z,25.93
2023-01-23T11:33:31.048Z,22.57
2023-01-23T11:38:27.151Z,25.73
2023-01-23T11:43:20.609Z,21.97
2023-01-23T11:48:25.606Z,22.87
2023-01-23T11:53:36.978Z,22.13
2023-01-23T11:58:50.486Z,24.30
2023-01-23T12:04:06.504Z,25.20
2023-01-23T12:09:15.891Z,24.53
2023-01-23T12:14:13.921Z,26.37
2023-01-23T12:19:16.761Z,25.23
2023-01-23T12:24:22.331Z,22.57
2023-01-23T12:29:42.784Z,24.67
2023-01-23T12:34:45.691Z,22.57
2023-01-23T12:39:52.268Z,23.60
2023-01-23T12:44:58.741Z,26.17
2023-01-23T12:49:59.372Z,23.43
2023-01-23T12:55:02.985Z,29.10
2023-01-23T13:00:07.631Z,26.80
2023-01-23T13:05:16.071Z,30.07
2023-01-23T13:10:47.465Z,34.20
2023-01-23T13:16:41.332Z,28.23
2023-01-23T13:21:48.679Z,30.97
2023-01-23T13:26:32.320Z,86.37
2023-01-23T13:31:36.726Z,38.70
2023-01-23T14:59:34.835Z,209.27
2023-01-23T15:04:40.848Z,312.90
2023-01-23T15:09:34.588Z,341.97
2023-01-23T15:14:38.433Z,358.00
2023-01-23T15:20:07.249Z,651.43
2023-01-23T15:25:27.772Z,568.30
2023-01-23T15:30:45.747Z,255.07
2023-01-23T15:35:42.012Z,502.73
2023-01-23T15:40:44.717Z,632.90
2023-01-23T15:45:29.111Z,355.93
2023-01-23T15:50:16.933Z,297.17
2023-01-23T15:55:17.855Z,475.70
2023-01-23T16:00:22.758Z,604.90
2023-01-23T16:05:18.097Z,581.27
2023-01-23T16:10:03.027Z,183.37
2023-01-23T16:14:49.974Z,499.67
2023-01-23T16:19:42.131Z,292.53
2023-01-23T16:24:44.540Z,369.97
2023-01-23T16:29:50.391Z,390.00
2023-01-23T16:34:34.745Z,515.17
2023-01-23T16:39:32.640Z,270.67
2023-01-23T16:44:30.422Z,445.13
2023-01-23T16:49:34.176Z,491.47
2023-01-23T16:54:49.772Z,519.10
2023-01-23T16:59:53.305Z,630.07
2023-01-23T17:04:51.014Z,277.33
2023-01-23T17:09:34.972Z,475.02
2023-01-23T17:14:22.300Z,306.57
2023-01-23T17:19:22.403Z,400.40
2023-01-23T17:24:28.084Z,299.90
2023-01-23T17:29:46.162Z,342.90
2023-01-23T17:34:50.330Z,354.03
2023-01-23T17:39:44.545Z,312.10
2023-01-23T17:44:29.770Z,358.90
2023-01-23T17:49:35.996Z,383.50
2023-01-23T17:54:22.467Z,257.93
2023-01-23T17:59:13.511Z,428.63
2023-01-23T18:04:03.886Z,561.87
2023-01-23T18:09:02.877Z,169.33
2023-01-23T18:14:24.134Z,282.30
2023-01-23T18:19:25.033Z,497.03
2023-01-23T18:24:29.661Z,400.87
2023-01-23T18:29:49.141Z,264.03
2023-01-23T18:34:53.689Z,271.97
2023-01-23T18:40:16.290Z,291.13
2023-01-23T18:45:26.956Z,393.03
2023-01-23T19:09:15.650Z,306.73
2023-01-23T19:14:38.065Z,259.90
2023-01-23T19:20:00.661Z,169.47
2023-01-23T19:25:06.258Z,260.53
2023-01-23T19:52:03.316Z,263.90
2023-01-23T19:57:05.213Z,263.10
2023-01-23T20:02:51.929Z,267.97
2023-01-23T20:08:27.970Z,266.80
2023-01-23T20:13:21.976Z,154.63
2023-01-23T20:18:08.455Z,114.07
2023-01-23T20:23:40.336Z,64.50
2023-01-23T20:28:30.980Z,476.73
2023-01-23T20:33:50.370Z,191.13
2023-01-23T20:38:42.422Z,312.27
2023-01-23T20:49:18.250Z,272.30
2023-01-23T20:54:24.893Z,89.53
2023-01-23T20:59:27.195Z,340.90
2023-01-23T21:04:16.284Z,426.67
2023-01-23T21:10:06.280Z,549.83
2023-01-23T21:14:55.269Z,220.70
2023-01-23T21:19:48.065Z,173.97
2023-01-23T21:24:47.057Z,472.43
2023-01-23T21:29:54.229Z,403.63
2023-01-23T21:34:54.975Z,278.07
2023-01-23T21:39:56.786Z,508.90
2023-01-23T21:45:00.384Z,451.83
2023-01-23T21:49:52.016Z,310.83
2023-01-23T21:54:43.763Z,316.20
2023-01-23T22:00:04.071Z,336.67
2023-01-23T22:05:06.770Z,405.73
2023-01-23T22:10:11.105Z,424.47
2023-01-23T22:15:07.475Z,401.50
2023-01-23T22:20:14.396Z,381.13
2023-01-23T22:25:05.865Z,564.10
2023-01-23T22:34:56.227Z,333.27
2023-01-23T22:39:47.859Z,348.97
2023-01-23T22:44:45.975Z,348.37
2023-01-23T22:49:49.270Z,133.20
2023-01-23T22:54:37.655Z,120.53
2023-01-23T22:59:31.482Z,600.77
2023-01-23T23:04:34.016Z,365.70
2023-01-23T23:09:20.065Z,164.47
2023-01-23T23:14:04.850Z,340.47
2023-01-23T23:18:57.299Z,331.97
2023-01-23T23:23:45.622Z,363.97
2023-01-23T23:28:30.709Z,664.63
2023-01-23T23:33:17.299Z,263.03
2023-01-23T23:38:06.993Z,132.43
2023-01-23T23:43:10.493Z,174.20
2023-01-23T23:47:58.547Z,504.27
2023-01-23T23:52:48.051Z,398.70
2023-01-23T23:57:50.643Z,533.57
